Time;durP1;ratioP1;P1;durP2;ratioP2;P2;SDS_P1;SDS_P2;PMS_P1;PMS_P2;Temp;Humidity;BMP_temperature;BMP_pressure;BME280_temperature;BME280_humidity;BME280_pressure;Samples;Min_cycle;Max_cycle;Signal;HPM_P1;HPM_P2
2022/07/16 00:01:24;;;;;;;5.73;4.63;;;;;;;18.10;51.39;156014.66;4989776;28;20537;-75
2022/07/16 00:03:52;;;;;;;5.97;5.03;;;;;;;18.05;51.83;156001.66;5002783;28;20453;-75
2022/07/16 00:06:19;;;;;;;8.80;5.30;;;;;;;18.01;52.04;155991.22;4985575;28;20440;-75
2022/07/16 00:08:46;;;;;;;6.90;4.20;;;;;;;18.00;51.96;155988.59;5011786;28;20432;-75
2022/07/16 00:11:12;;;;;;;5.83;4.43;;;;;;;18.01;51.88;155991.22;5006069;28;20440;-75
2022/07/16 00:13:41;;;;;;;5.70;4.60;;;;;;;17.97;51.81;155979.50;4982734;28;20960;-76
2022/07/16 00:16:08;;;;;;;5.63;4.57;;;;;;;17.95;52.12;155975.56;4997581;28;20948;-75
2022/07/16 00:21:20;;;;;;;8.23;4.80;;;;;;;17.91;52.09;155965.16;4991899;28;20426;-75
2022/07/16 00:23:46;;;;;;;5.73;4.83;;;;;;;17.91;51.82;155963.88;4988761;28;20847;-75
2022/07/16 00:26:13;;;;;;;4.60;4.20;;;;;;;17.86;52.19;155950.84;4995948;28;20633;-75
2022/07/16 00:28:41;;;;;;;7.23;4.50;;;;;;;17.86;52.11;155952.16;4976909;28;20440;-75
2022/07/16 00:31:08;;;;;;;7.23;4.30;;;;;;;17.82;52.45;155941.72;4991387;28;20519;-75
2022/07/16 00:33:35;;;;;;;5.07;4.57;;;;;;;17.77;52.29;155928.69;5001504;28;20460;-75
2022/07/16 00:36:02;;;;;;;4.80;4.37;;;;;;;17.72;52.25;155915.69;4994221;28;20437;-75
2022/07/16 00:38:28;;;;;;;6.20;4.70;;;;;;;17.69;52.60;155906.56;4985457;28;20540;-75
2022/07/16 00:40:55;;;;;;;6.33;4.90;;;;;;;17.68;52.93;155905.28;5001904;28;20528;-75
2022/07/16 00:43:22;;;;;;;6.57;4.40;;;;;;;17.63;52.79;155893.53;4988228;28;20501;-75
2022/07/16 00:45:50;;;;;;;6.03;4.27;;;;;;;17.61;52.44;155887.03;4994821;28;20850;-75
2022/07/16 00:48:17;;;;;;;10.53;4.53;;;;;;;17.57;52.64;155877.97;5013284;28;20467;-75
2022/07/16 00:50:44;;;;;;;4.93;4.43;;;;;;;17.54;52.65;155868.84;4978887;28;20472;-79
2022/07/16 00:53:11;;;;;;;5.40;4.90;;;;;;;17.49;52.88;155855.78;4995371;28;20458;-79
2022/07/16 00:55:39;;;;;;;7.10;4.23;;;;;;;17.44;53.27;155844.06;4991305;28;20499;-78
2022/07/16 00:58:06;;;;;;;4.70;4.30;;;;;;;17.39;53.20;155829.75;4991745;28;20512;-78
2022/07/16 01:00:33;;;;;;;6.17;4.50;;;;;;;17.34;53.39;155818.00;4989763;28;20445;-79
2022/07/16 01:03:01;;;;;;;4.77;4.07;;;;;;;17.37;53.26;155824.50;4992973;28;20852;-78
2022/07/16 01:05:28;;;;;;;5.50;4.00;;;;;;;17.31;53.26;155810.22;4992422;28;20445;-78
2022/07/16 01:07:56;;;;;;;6.50;4.20;;;;;;;17.27;53.34;155798.47;4991472;28;20453;-78
2022/07/16 01:10:23;;;;;;;5.00;4.33;;;;;;;17.26;53.41;155795.91;5003708;28;20537;-78
2022/07/16 01:12:49;;;;;;;6.97;4.80;;;;;;;17.28;53.48;155802.41;4992947;28;20947;-78
2022/07/16 01:15:16;;;;;;;5.00;4.10;;;;;;;17.23;53.57;155789.41;5002667;28;20439;-79
2022/07/16 01:17:43;;;;;;;4.40;4.00;;;;;;;17.21;53.94;155784.16;4985037;28;20457;-78
2022/07/16 01:20:12;;;;;;;5.60;4.63;;;;;;;17.16;53.99;155769.84;4995237;28;20872;-78
2022/07/16 01:22:39;;;;;;;5.60;4.10;;;;;;;17.13;53.76;155763.34;4994447;28;20499;-78
2022/07/16 01:25:10;;;;;;;5.87;4.20;;;;;;;17.12;54.45;155759.47;5006093;28;20455;-78
2022/07/16 01:27:36;;;;;;;5.43;4.80;;;;;;;17.09;53.94;155752.94;4982076;28;20488;-78
2022/07/16 01:30:04;;;;;;;6.07;4.70;;;;;;;17.07;54.31;155746.44;4994240;28;20496;-78
2022/07/16 01:32:30;;;;;;;7.47;4.37;;;;;;;17.02;54.20;155736.00;4993100;28;20517;-78
2022/07/16 01:34:57;;;;;;;5.17;4.67;;;;;;;16.99;54.23;155728.25;4996408;28;20544;-78
2022/07/16 01:37:24;;;;;;;5.63;5.03;;;;;;;16.98;54.41;155724.31;4994143;28;20532;-78
2022/07/16 01:39:51;;;;;;;8.20;4.70;;;;;;;16.99;54.41;155726.94;5010662;28;20441;-78
2022/07/16 01:42:19;;;;;;;4.30;3.90;;;;;;;16.96;54.51;155719.13;4985523;28;20441;-79
2022/07/16 01:44:45;;;;;;;4.90;4.37;;;;;;;16.95;54.21;155716.50;4990278;28;20968;-78
2022/07/16 01:47:13;;;;;;;5.47;4.20;;;;;;;16.94;54.52;155713.94;5004481;28;20441;-78
2022/07/16 01:49:40;;;;;;;7.80;4.50;;;;;;;16.90;54.52;155704.81;4992608;28;20476;-80
2022/07/16 01:52:09;;;;;;;5.80;4.77;;;;;;;16.88;54.50;155699.63;4981609;28;20452;-78
2022/07/16 01:54:37;;;;;;;6.70;4.40;;;;;;;16.84;54.57;155687.88;4989885;28;20463;-78
2022/07/16 01:57:04;;;;;;;5.03;4.53;;;;;;;16.81;54.76;155680.09;4999820;28;20448;-78
2022/07/16 01:59:32;;;;;;;5.23;4.53;;;;;;;16.80;54.69;155678.78;4994494;28;20543;-75
2022/07/16 02:01:59;;;;;;;5.13;4.63;;;;;;;16.75;55.01;155664.47;4992335;28;20502;-74
2022/07/16 02:04:25;;;;;;;4.63;4.23;;;;;;;16.72;54.79;155656.66;4987915;28;20468;-75
2022/07/16 02:06:52;;;;;;;4.47;4.07;;;;;;;16.70;55.13;155652.78;5004369;28;20524;-75
2022/07/16 02:09:19;;;;;;;5.50;4.50;;;;;;;16.67;54.65;155644.97;4979635;28;20933;-75
2022/07/16 02:11:46;;;;;;;6.47;4.63;;;;;;;16.66;54.92;155641.03;4992574;28;20868;-75
2022/07/16 02:14:12;;;;;;;5.03;4.53;;;;;;;16.64;55.24;155637.16;4982994;28;20457;-75
2022/07/16 02:16:40;;;;;;;8.23;4.87;;;;;;;16.63;54.66;155633.22;5012087;28;20916;-75
2022/07/16 02:19:07;;;;;;;4.17;3.77;;;;;;;16.61;54.87;155629.34;5011143;28;20515;-74
2022/07/16 02:21:34;;;;;;;5.83;4.47;;;;;;;16.57;54.96;155617.66;4988524;28;20450;-76
2022/07/16 02:24:01;;;;;;;3.90;3.50;;;;;;;16.55;54.75;155613.72;5007686;28;20944;-75
2022/07/16 02:26:28;;;;;;;4.73;4.33;;;;;;;16.54;54.87;155611.16;4978263;28;20603;-75
2022/07/16 02:28:55;;;;;;;4.60;3.97;;;;;;;16.54;54.98;155609.84;4992869;28;20548;-75
2022/07/16 02:31:21;;;;;;;5.10;4.07;;;;;;;16.45;55.27;155587.66;4973628;28;21069;-74
2022/07/16 02:33:49;;;;;;;4.80;3.53;;;;;;;16.47;55.04;155592.88;4997571;28;20472;-74
2022/07/16 02:36:17;;;;;;;5.97;4.27;;;;;;;16.44;55.13;155586.38;4994052;28;20433;-74
2022/07/16 02:38:44;;;;;;;5.90;4.40;;;;;;;16.44;55.08;155586.38;5011260;28;20547;-75
2022/07/16 02:41:10;;;;;;;4.57;4.17;;;;;;;16.44;55.20;155585.09;4983439;28;20442;-75
2022/07/16 02:43:37;;;;;;;4.50;4.10;;;;;;;16.45;55.19;155587.66;4991848;28;20461;-75
2022/07/16 02:46:04;;;;;;;5.90;3.93;;;;;;;16.42;55.26;155579.88;4992642;28;20848;-74
2022/07/16 02:48:31;;;;;;;5.63;4.33;;;;;;;16.40;55.19;155575.97;4992368;28;20464;-75
2022/07/16 02:50:59;;;;;;;4.57;4.17;;;;;;;16.36;55.16;155565.56;4968780;28;20469;-75
2022/07/16 02:53:25;;;;;;;4.33;3.93;;;;;;;16.32;55.28;155553.84;4991345;28;20544;-75
2022/07/16 02:55:52;;;;;;;5.83;4.10;;;;;;;16.29;55.12;155546.06;4976708;28;20449;-75
2022/07/16 02:58:19;;;;;;;4.63;4.17;;;;;;;16.28;55.08;155544.75;5001523;28;20539;-75
2022/07/16 03:00:45;;;;;;;4.83;4.43;;;;;;;16.23;55.25;155530.47;4994892;28;20765;-75
2022/07/16 03:03:12;;;;;;;5.23;3.80;;;;;;;16.20;55.39;155522.66;4991709;28;20487;-75
2022/07/16 03:05:39;;;;;;;4.67;4.27;;;;;;;16.20;55.30;155522.66;5009399;28;20442;-74
2022/07/16 03:08:07;;;;;;;6.03;4.07;;;;;;;16.10;55.46;155496.63;5006537;28;20673;-77
2022/07/16 03:10:34;;;;;;;4.17;3.77;;;;;;;16.10;55.88;155496.63;5007342;28;20979;-77
2022/07/16 03:13:01;;;;;;;4.53;4.00;;;;;;;16.08;55.68;155491.44;4994495;28;20802;-75
2022/07/16 03:15:28;;;;;;;4.93;4.10;;;;;;;16.05;55.71;155483.63;5013177;28;20535;-76
2022/07/16 03:17:54;;;;;;;4.17;3.77;;;;;;;16.03;56.07;155478.44;4977942;28;20453;-76
2022/07/16 03:20:21;;;;;;;4.20;3.80;;;;;;;16.05;55.82;155484.94;4994727;28;20445;-75
2022/07/16 03:22:48;;;;;;;5.83;4.30;;;;;;;16.05;56.05;155483.63;4995024;28;20437;-76
2022/07/16 03:25:17;;;;;;;4.00;3.60;;;;;;;16.10;55.59;155497.94;4994036;28;20463;-76
2022/07/16 03:27:44;;;;;;;4.20;3.80;;;;;;;16.10;56.15;155497.94;4995053;28;20470;-76
2022/07/16 03:30:11;;;;;;;4.83;4.30;;;;;;;16.03;56.28;155479.75;4993027;28;20544;-76
2022/07/16 03:32:38;;;;;;;5.17;3.57;;;;;;;15.96;56.58;155460.25;4994927;28;20661;-76
2022/07/16 03:35:06;;;;;;;5.17;3.90;;;;;;;15.90;56.76;155445.94;4989885;28;20441;-76
2022/07/16 03:37:33;;;;;;;4.27;3.80;;;;;;;15.83;57.03;155429.03;4977759;28;20437;-75
2022/07/16 03:39:59;;;;;;;6.27;4.10;;;;;;;15.74;57.11;155405.66;4995249;28;20500;-76
2022/07/16 03:42:28;;;;;;;4.67;4.17;;;;;;;15.72;56.94;155400.47;4977910;28;20441;-76
2022/07/16 03:44:54;;;;;;;5.53;4.17;;;;;;;15.66;57.29;155384.84;4995283;28;20448;-76
2022/07/16 03:47:21;;;;;;;4.37;3.83;;;;;;;15.65;57.69;155382.22;4977909;28;20535;-76
2022/07/16 03:49:51;;;;;;;4.10;3.70;;;;;;;15.62;57.64;155373.16;4994631;28;21047;-79
2022/07/16 03:52:18;;;;;;;5.47;4.00;;;;;;;15.58;58.07;155364.03;4999051;28;20449;-79
2022/07/16 03:54:44;;;;;;;3.90;3.43;;;;;;;15.61;58.19;155370.53;5015158;28;20444;-79
2022/07/16 03:57:11;;;;;;;4.73;4.33;;;;;;;15.60;58.17;155367.91;4996540;28;20447;-79
2022/07/16 03:59:39;;;;;;;4.93;4.53;;;;;;;15.57;58.34;155361.44;5014919;28;20503;-79
2022/07/16 04:02:06;;;;;;;5.80;4.20;;;;;;;15.58;58.34;155362.75;5013393;28;20483;-79
2022/07/16 04:04:32;;;;;;;5.00;4.50;;;;;;;15.55;58.74;155356.25;5014301;28;20820;-79
2022/07/16 04:06:59;;;;;;;4.33;3.93;;;;;;;15.50;59.21;155343.25;4992542;28;20865;-79
2022/07/16 04:09:26;;;;;;;5.00;4.10;;;;;;;15.53;59.19;155351.06;4994920;28;20453;-79
2022/07/16 04:11:53;;;;;;;7.30;4.10;;;;;;;15.54;59.17;155352.38;4994550;28;20470;-79
2022/07/16 04:14:19;;;;;;;4.27;3.87;;;;;;;15.53;58.91;155351.06;4977322;28;20468;-79
2022/07/16 04:16:47;;;;;;;5.10;4.60;;;;;;;15.55;58.94;155354.94;5006672;28;20483;-79
2022/07/16 04:19:14;;;;;;;4.77;4.27;;;;;;;15.58;59.27;155364.03;5012593;28;20448;-79
2022/07/16 04:21:41;;;;;;;4.20;3.70;;;;;;;15.61;59.28;155370.53;5014095;28;20432;-79
2022/07/16 04:24:08;;;;;;;4.90;3.97;;;;;;;15.68;59.42;155388.72;4990816;28;20556;-79
2022/07/16 04:26:35;;;;;;;6.03;4.40;;;;;;;15.80;59.63;155421.25;4998156;28;20991;-79
2022/07/16 04:29:02;;;;;;;5.13;4.00;;;;;;;16.00;58.77;155470.63;4995594;28;20552;-80
2022/07/16 04:31:28;;;;;;;6.17;4.70;;;;;;;16.15;58.79;155509.66;4994577;28;20477;-79
2022/07/16 04:33:56;;;;;;;6.40;4.30;;;;;;;16.28;58.55;155543.47;4997429;28;20565;-80
2022/07/16 04:36:23;;;;;;;4.20;3.80;;;;;;;16.50;58.24;155600.66;4976570;28;20528;-79
2022/07/16 04:38:50;;;;;;;5.33;4.83;;;;;;;16.78;57.80;155672.28;5012120;28;20488;-79
2022/07/16 04:41:16;;;;;;;4.97;3.90;;;;;;;17.17;56.63;155772.47;5007411;28;20434;-79
2022/07/16 04:43:43;;;;;;;5.07;4.17;;;;;;;17.54;55.76;155868.84;4994576;28;20438;-79
2022/07/16 04:46:10;;;;;;;4.47;4.07;;;;;;;17.87;54.76;155954.72;4993948;28;20438;-76
2022/07/16 04:48:36;;;;;;;6.17;4.30;;;;;;;18.14;53.82;156023.75;4995606;28;20497;-76
2022/07/16 04:51:05;;;;;;;4.33;3.93;;;;;;;18.45;53.09;156104.53;4994058;28;20559;-76
2022/07/16 04:53:31;;;;;;;4.17;3.80;;;;;;;18.71;52.24;156171.00;5007750;28;20464;-76
2022/07/16 04:55:58;;;;;;;5.80;4.50;;;;;;;18.80;51.18;156194.44;5012686;28;20964;-76
2022/07/16 04:58:27;;;;;;;4.77;4.37;;;;;;;19.04;50.99;156256.97;4987937;28;20445;-76
2022/07/16 05:00:53;;;;;;;7.63;4.60;;;;;;;19.27;50.17;156316.91;4976553;28;20541;-76
2022/07/16 05:03:23;;;;;;;4.33;3.93;;;;;;;19.60;48.93;156401.72;4976354;28;20532;-76
2022/07/16 05:05:50;;;;;;;6.10;3.90;;;;;;;19.71;49.18;156429.09;4976405;28;20850;-76
2022/07/16 05:08:18;;;;;;;6.40;4.30;;;;;;;19.84;48.49;156464.31;4975591;28;20450;-76
2022/07/16 05:10:44;;;;;;;5.13;4.03;;;;;;;19.86;48.28;156468.19;4992529;28;20465;-76
2022/07/16 05:13:11;;;;;;;4.30;3.90;;;;;;;20.15;47.97;156542.56;4976206;28;20441;-76
2022/07/16 05:15:38;;;;;;;5.57;4.70;;;;;;;20.32;47.71;156588.25;4993506;28;20522;-76
2022/07/16 05:18:05;;;;;;;3.97;3.67;;;;;;;20.47;47.43;156627.34;4975848;28;20437;-76
2022/07/16 05:20:32;;;;;;;7.27;4.43;;;;;;;20.60;47.22;156659.94;4991197;28;20446;-76
2022/07/16 05:22:59;;;;;;;5.17;3.90;;;;;;;20.77;46.22;156703.03;4992957;28;20456;-76
2022/07/16 05:25:28;;;;;;;5.90;4.37;;;;;;;20.89;46.33;156734.38;4992293;28;20536;-76
2022/07/16 05:27:54;;;;;;;4.30;3.90;;;;;;;20.94;46.28;156747.41;4991021;28;20581;-76
2022/07/16 05:30:21;;;;;;;4.90;4.40;;;;;;;21.10;45.84;156789.22;4991614;28;20442;-76
2022/07/16 05:32:48;;;;;;;5.70;3.90;;;;;;;21.35;45.31;156854.44;4991399;28;20445;-76
2022/07/16 05:35:16;;;;;;;4.47;4.07;;;;;;;21.64;44.18;156930.16;4975381;28;20920;-76
2022/07/16 05:37:43;;;;;;;4.27;3.87;;;;;;;21.66;43.78;156935.38;4992515;28;20429;-76
2022/07/16 05:40:11;;;;;;;3.83;3.50;;;;;;;21.91;43.84;156998.09;4993761;28;20524;-76
2022/07/16 05:42:39;;;;;;;4.63;3.60;;;;;;;21.94;43.01;157005.94;5011346;28;20436;-76
2022/07/16 05:45:07;;;;;;;4.73;4.07;;;;;;;22.16;42.96;157063.41;5012731;28;20432;-77
2022/07/16 05:47:34;;;;;;;4.67;4.27;;;;;;;22.25;43.67;157088.22;5011836;28;20491;-76
2022/07/16 05:50:01;;;;;;;4.23;3.93;;;;;;;22.47;43.28;157144.38;4981633;28;21055;-77
2022/07/16 05:52:28;;;;;;;4.10;3.53;;;;;;;22.50;42.57;157152.22;4996666;28;20847;-77
2022/07/16 05:54:54;;;;;;;5.10;3.67;;;;;;;22.66;42.62;157192.78;5012947;28;20486;-77
2022/07/16 05:57:21;;;;;;;4.47;4.07;;;;;;;22.87;42.22;157248.97;4994800;28;20472;-76
2022/07/16 05:59:49;;;;;;;5.07;4.57;;;;;;;23.00;42.47;157281.63;5004869;28;20446;-76
2022/07/16 06:02:16;;;;;;;4.70;4.30;;;;;;;23.14;43.18;157316.91;4984367;28;20434;-79
2022/07/16 06:04:43;;;;;;;5.13;4.10;;;;;;;22.94;42.72;157267.25;4990926;28;20460;-79
2022/07/16 06:07:09;;;;;;;9.90;4.20;;;;;;;22.80;43.58;157230.63;4992546;28;20434;-79
2022/07/16 06:09:36;;;;;;;11.97;4.43;;;;;;;22.97;43.01;157275.09;4992454;28;20508;-79
2022/07/16 06:12:04;;;;;;;6.00;3.80;;;;;;;22.92;43.25;157262.03;4993381;28;20477;-79
2022/07/16 06:14:30;;;;;;;4.73;4.20;;;;;;;22.99;42.91;157280.28;4991222;28;20822;-79
2022/07/16 06:16:59;;;;;;;4.63;4.20;;;;;;;22.84;43.23;157239.78;4992500;28;20492;-79
2022/07/16 06:19:25;;;;;;;3.93;3.53;;;;;;;22.76;43.24;157218.88;4990791;28;20460;-79
2022/07/16 06:21:52;;;;;;;4.87;4.30;;;;;;;22.87;42.88;157248.97;5001662;28;20444;-79
2022/07/16 06:24:19;;;;;;;3.90;3.60;;;;;;;22.94;42.93;157267.25;4997816;28;20456;-79
2022/07/16 06:26:47;;;;;;;7.33;4.33;;;;;;;23.19;42.49;157331.28;4971588;28;20890;-79
2022/07/16 06:29:15;;;;;;;6.90;4.30;;;;;;;23.41;42.43;157388.81;4988038;28;20454;-79
2022/07/16 06:31:42;;;;;;;4.43;3.73;;;;;;;23.38;42.49;157380.97;4984991;28;20474;-79
2022/07/16 06:34:10;;;;;;;5.00;4.30;;;;;;;23.83;41.93;157496.03;4973158;28;20501;-79
2022/07/16 06:36:37;;;;;;;4.40;3.70;;;;;;;23.85;41.42;157502.56;4972516;28;20458;-79
2022/07/16 06:39:04;;;;;;;5.13;4.63;;;;;;;23.52;42.54;157417.56;4972571;28;20557;-79
2022/07/16 06:41:31;;;;;;;3.90;3.60;;;;;;;23.55;42.82;157424.09;4954745;28;20534;-79
2022/07/16 06:43:58;;;;;;;10.30;4.60;;;;;;;23.40;42.88;157384.91;4970464;28;20892;-79
2022/07/16 06:46:24;;;;;;;7.03;4.70;;;;;;;23.46;42.43;157400.56;4988116;28;20811;-79
2022/07/16 06:48:51;;;;;;;4.40;3.93;;;;;;;23.62;42.63;157443.69;4989688;28;20450;-79
2022/07/16 06:51:19;;;;;;;5.10;4.60;;;;;;;24.21;42.03;157596.75;4976748;28;20613;-79
2022/07/16 06:53:50;;;;;;;4.97;4.17;;;;;;;24.07;41.58;157560.06;5007272;28;20489;-79
2022/07/16 06:56:17;;;;;;;4.50;4.10;;;;;;;24.18;41.50;157588.91;4994909;28;20937;-79
2022/07/16 06:58:43;;;;;;;5.70;4.23;;;;;;;24.60;40.70;157696.13;4976649;28;20932;-79
2022/07/16 07:01:11;;;;;;;5.20;4.30;;;;;;;24.47;41.30;157663.44;4991731;28;20456;-79
2022/07/16 07:03:38;;;;;;;5.63;4.57;;;;;;;24.48;41.33;157664.75;4996096;28;20496;-79
2022/07/16 07:06:05;;;;;;;4.67;4.27;;;;;;;24.75;40.11;157735.41;4994571;28;20433;-79
2022/07/16 07:08:33;;;;;;;6.00;5.50;;;;;;;24.70;40.31;157722.31;4994478;28;20480;-80
2022/07/16 07:11:00;;;;;;;5.00;4.50;;;;;;;25.18;39.69;157847.94;4994032;28;20541;-80
2022/07/16 07:13:29;;;;;;;4.70;4.17;;;;;;;25.33;39.64;157887.22;4994344;28;21007;-80
2022/07/16 07:15:56;;;;;;;4.43;4.03;;;;;;;25.13;39.72;157834.84;4975094;28;20940;-78
2022/07/16 07:18:23;;;;;;;5.13;4.40;;;;;;;25.43;39.89;157912.09;4976582;28;20453;-77
2022/07/16 07:20:50;;;;;;;4.00;3.70;;;;;;;24.91;40.32;157777.31;4975853;28;20533;-77
2022/07/16 07:23:17;;;;;;;4.87;4.47;;;;;;;25.23;40.49;157861.03;4974675;28;20443;-80
2022/07/16 07:25:45;;;;;;;5.43;4.93;;;;;;;25.36;40.37;157895.03;4974773;28;20482;-80
2022/07/16 07:28:12;;;;;;;5.13;4.63;;;;;;;25.33;41.25;157885.91;4975095;28;20517;-78
2022/07/16 07:30:38;;;;;;;8.50;5.60;;;;;;;25.16;41.27;157842.72;4973795;28;20438;-80
2022/07/16 07:33:05;;;;;;;5.90;5.40;;;;;;;24.79;41.30;157747.22;4983662;28;20509;-80
2022/07/16 07:35:32;;;;;;;8.13;5.80;;;;;;;24.96;41.17;157790.41;4970993;28;20929;-81
2022/07/16 07:37:59;;;;;;;5.80;5.30;;;;;;;25.10;40.79;157825.75;4971321;28;20446;-81
2022/07/16 07:40:26;;;;;;;5.90;5.30;;;;;;;25.54;40.53;157939.63;4956057;28;20498;-83
2022/07/16 07:42:55;;;;;;;6.60;5.57;;;;;;;25.50;39.65;157930.44;4956450;28;20428;-82
2022/07/16 07:45:22;;;;;;;5.20;4.67;;;;;;;25.56;39.79;157946.16;4956457;28;20521;-81
2022/07/16 07:47:49;;;;;;;6.60;5.73;;;;;;;25.97;39.70;158052.22;4958898;28;20482;-81
2022/07/16 07:50:16;;;;;;;5.80;5.40;;;;;;;25.90;38.81;158035.19;4975919;28;20429;-82
2022/07/16 07:52:43;;;;;;;5.87;5.30;;;;;;;25.93;39.13;158041.72;4975773;28;20499;-82
2022/07/16 07:55:10;;;;;;;6.50;5.47;;;;;;;26.65;37.64;158227.72;4990775;28;20993;-81
2022/07/16 07:57:36;;;;;;;5.90;5.33;;;;;;;26.73;37.06;158248.69;4990624;28;20450;-81
2022/07/16 08:00:07;;;;;;;6.30;5.00;;;;;;;26.49;37.21;158188.44;4989767;28;20537;-81
2022/07/16 08:02:43;;;;;;;5.73;5.13;;;;;;;26.31;36.73;158141.31;4974262;28;20808;-81
2022/07/16 08:05:10;;;;;;;5.67;5.17;;;;;;;26.08;36.56;158080.97;4973945;28;20568;-81
2022/07/16 08:07:37;;;;;;;6.67;5.43;;;;;;;25.87;36.57;158027.31;4975435;28;21009;-82
2022/07/16 08:10:04;;;;;;;4.80;4.40;;;;;;;26.49;35.96;158187.13;4973844;28;20442;-81
2022/07/16 08:12:31;;;;;;;5.43;4.90;;;;;;;26.83;35.01;158276.25;4958023;28;20564;-81
2022/07/16 08:14:58;;;;;;;5.20;4.60;;;;;;;26.50;35.19;158191.03;4990012;28;20438;-82
2022/07/16 08:17:26;;;;;;;4.83;3.97;;;;;;;26.37;35.42;158156.97;4975488;28;20473;-82
2022/07/16 08:19:53;;;;;;;5.43;4.73;;;;;;;25.37;36.24;157897.69;4990044;28;20447;-82
2022/07/16 08:22:20;;;;;;;6.83;4.83;;;;;;;25.27;36.29;157871.53;4975214;28;20431;-83
2022/07/16 08:27:30;;;;;;;4.90;3.77;;;;;;;26.02;35.78;158065.31;4973800;28;20470;-81
2022/07/16 08:29:57;;;;;;;5.70;3.70;;;;;;;26.29;34.57;158136.03;4975050;28;20431;-83
2022/07/16 08:32:25;;;;;;;4.37;3.57;;;;;;;26.48;33.80;158184.47;4973693;28;20513;-83
2022/07/16 08:34:52;;;;;;;4.30;4.00;;;;;;;25.35;35.98;157892.47;4975027;28;20852;-83
2022/07/16 08:37:32;;;;;;;4.80;4.00;;;;;;;25.30;36.49;157879.38;4975231;28;20435;-82
2022/07/16 08:39:59;;;;;;;4.20;3.80;;;;;;;25.80;35.35;158009.00;4957141;28;20460;-84
2022/07/16 08:42:26;;;;;;;3.80;3.47;;;;;;;25.99;34.49;158058.75;4975091;28;20473;-85
2022/07/16 08:44:53;;;;;;;3.03;2.73;;;;;;;26.19;32.47;158108.53;4957648;28;20482;-84
2022/07/16 08:47:20;;;;;;;3.33;3.03;;;;;;;25.65;33.46;157968.44;4957428;28;20977;-85
2022/07/16 08:49:48;;;;;;;3.30;3.00;;;;;;;25.29;34.35;157876.75;4974520;28;20530;-85
2022/07/16 08:52:15;;;;;;;3.70;2.70;;;;;;;25.54;34.72;157939.63;4989642;28;20462;-85
2022/07/16 08:54:44;;;;;;;3.70;3.40;;;;;;;25.41;34.12;157906.84;4973454;28;20482;-84
2022/07/16 08:57:10;;;;;;;3.50;2.77;;;;;;;25.17;33.73;157845.34;4974323;28;20435;-84
2022/07/16 08:59:37;;;;;;;4.30;2.90;;;;;;;25.09;34.12;157824.41;4973473;28;20517;-84
2022/07/16 09:02:04;;;;;;;2.87;2.60;;;;;;;25.24;34.13;157863.66;4973065;28;20443;-84
2022/07/16 09:04:31;;;;;;;2.70;2.50;;;;;;;25.23;33.38;157861.03;4973511;28;20454;-84
2022/07/16 09:06:59;;;;;;;3.30;2.73;;;;;;;25.06;33.54;157815.25;4989337;28;20854;-84
2022/07/16 09:09:25;;;;;;;2.80;2.50;;;;;;;25.41;32.47;157908.19;4974392;28;20442;-84
2022/07/16 09:11:52;;;;;;;2.80;2.50;;;;;;;25.81;32.41;158010.31;4985655;28;20473;-77
2022/07/16 09:14:20;;;;;;;3.83;3.10;;;;;;;25.76;32.47;157997.22;4983820;28;20454;-77
2022/07/16 09:16:49;;;;;;;2.93;2.60;;;;;;;25.21;33.01;157855.81;4973815;28;20435;-77
2022/07/16 09:19:17;;;;;;;3.07;2.77;;;;;;;25.42;33.32;157910.75;4972197;28;20450;-77
2022/07/16 09:22:16;;;;;;;6.83;2.83;;;;;;;25.78;32.24;158002.47;4971777;28;20443;-77
2022/07/16 09:24:45;;;;;;;3.60;2.40;;;;;;;25.59;33.50;157952.69;4932771;29;20469;-77
2022/07/16 09:27:13;;;;;;;5.20;2.20;;;;;;;26.31;32.84;158141.31;4959253;28;20485;-77
2022/07/16 09:29:46;;;;;;;4.37;2.60;;;;;;;26.65;31.36;158227.72;4987196;28;20869;-77
2022/07/16 09:32:13;;;;;;;4.47;2.83;;;;;;;26.66;30.52;158230.34;4990109;28;20482;-77
2022/07/16 09:35:02;;;;;;;4.60;2.70;;;;;;;26.09;31.63;158083.63;4971363;28;20454;-77
2022/07/16 09:37:45;;;;;;;3.70;3.03;;;;;;;25.57;31.97;157947.47;4990024;28;20431;-76
2022/07/16 09:40:12;;;;;;;3.20;2.37;;;;;;;25.67;33.04;157973.66;4981420;28;20451;-76
2022/07/16 09:42:39;;;;;;;2.80;2.60;;;;;;;25.73;32.61;157989.38;4993527;28;20508;-76
2022/07/16 09:45:08;;;;;;;2.70;2.13;;;;;;;25.94;32.19;158044.34;4977534;28;20435;-76
2022/07/16 09:47:35;;;;;;;2.87;2.67;;;;;;;25.50;32.79;157929.13;4969960;28;20537;-76
2022/07/16 09:50:02;;;;;;;2.90;2.20;;;;;;;25.12;33.17;157832.28;4971400;28;20793;-76
2022/07/16 09:52:34;;;;;;;3.00;2.63;;;;;;;25.46;33.17;157918.63;4970052;28;20489;-76
2022/07/16 09:55:02;;;;;;;3.27;2.47;;;;;;;25.88;31.92;158029.94;4972746;28;20804;-76
2022/07/16 09:58:03;;;;;;;2.70;2.47;;;;;;;25.62;32.40;157960.56;4972279;28;20482;-76
2022/07/16 10:00:30;;;;;;;2.50;2.30;;;;;;;25.14;32.81;157837.50;4969799;28;20458;-76
2022/07/16 10:02:58;;;;;;;2.43;2.23;;;;;;;25.00;33.70;157799.53;4966695;28;20488;-76
2022/07/16 10:05:24;;;;;;;5.13;2.70;;;;;;;25.29;33.66;157875.44;4967126;28;20457;-76
2022/07/16 10:07:52;;;;;;;2.87;2.67;;;;;;;25.72;33.58;157986.72;4972294;28;20486;-76
2022/07/16 10:10:19;;;;;;;2.60;2.33;;;;;;;25.27;33.46;157871.53;4963110;28;20549;-76
2022/07/16 10:12:47;;;;;;;4.37;3.00;;;;;;;24.88;33.71;157769.47;4963405;28;20467;-76
2022/07/16 10:15:14;;;;;;;2.90;2.60;;;;;;;24.64;34.35;157706.63;4961651;28;20473;-77
2022/07/16 10:17:40;;;;;;;4.10;2.93;;;;;;;24.56;34.70;157685.69;4967934;28;20446;-75
2022/07/16 10:20:09;;;;;;;3.00;2.80;;;;;;;24.44;34.96;157654.25;4962155;28;20454;-76
2022/07/16 10:22:39;;;;;;;3.17;2.87;;;;;;;24.88;34.31;157768.16;4962269;28;20784;-76
2022/07/16 10:25:13;;;;;;;3.50;3.00;;;;;;;25.47;33.86;157921.31;4959061;28;20566;-76
2022/07/16 10:27:41;;;;;;;3.63;2.73;;;;;;;25.60;33.06;157955.34;4983582;28;20986;-76
2022/07/16 10:30:16;;;;;;;4.57;2.83;;;;;;;24.86;34.02;157764.19;4977739;28;20494;-76
2022/07/16 10:33:17;;;;;;;4.00;2.77;;;;;;;24.67;34.01;157714.47;4960500;28;20581;-76
2022/07/16 10:35:49;;;;;;;3.10;2.63;;;;;;;24.69;33.87;157719.69;4959040;28;20952;-76
2022/07/16 10:38:19;;;;;;;3.47;3.17;;;;;;;24.35;34.75;157630.75;4965128;28;20434;-76
2022/07/16 10:40:48;;;;;;;2.90;2.70;;;;;;;24.58;34.06;157692.22;4961302;28;20562;-75
2022/07/16 10:43:17;;;;;;;3.10;2.80;;;;;;;24.31;34.79;157620.25;4963915;28;20525;-76
2022/07/16 10:45:52;;;;;;;3.00;2.70;;;;;;;24.34;35.11;157628.13;4986884;28;20788;-76
2022/07/16 10:48:19;;;;;;;2.83;2.63;;;;;;;24.98;34.29;157794.31;4962888;28;20840;-76
2022/07/16 10:51:10;;;;;;;3.27;2.37;;;;;;;25.31;33.85;157881.97;4961378;28;20435;-76
2022/07/16 10:54:10;;;;;;;4.03;2.83;;;;;;;25.59;33.74;157952.69;4964884;28;20554;-76
2022/07/16 10:56:39;;;;;;;2.50;2.30;;;;;;;25.54;32.17;157939.63;4967620;28;20453;-76
2022/07/16 10:59:13;;;;;;;2.87;2.67;;;;;;;25.09;32.97;157823.09;4961003;28;21016;-76
2022/07/16 11:01:42;;;;;;;3.20;2.90;;;;;;;25.00;33.04;157800.84;4965875;28;20446;-75
2022/07/16 11:04:10;;;;;;;2.63;2.43;;;;;;;24.75;33.80;157736.66;4990516;28;20434;-75
2022/07/16 11:06:37;;;;;;;3.73;2.83;;;;;;;24.53;33.56;157679.16;4961046;28;20447;-76
2022/07/16 11:09:05;;;;;;;3.23;2.90;;;;;;;24.50;34.68;157669.97;4962253;28;20498;-76
2022/07/16 11:11:33;;;;;;;3.83;2.53;;;;;;;24.83;34.07;157756.38;4964233;28;20809;-77
2022/07/16 11:14:02;;;;;;;3.60;2.47;;;;;;;25.28;33.47;157874.09;4978519;28;20478;-77
2022/07/16 11:16:29;;;;;;;3.07;2.67;;;;;;;25.06;34.58;157815.25;4992764;28;20454;-76
2022/07/16 11:18:56;;;;;;;2.60;2.40;;;;;;;24.78;33.97;157744.56;4960709;28;20965;-77
2022/07/16 11:21:23;;;;;;;3.37;2.73;;;;;;;24.79;33.59;157745.88;4961969;28;20557;-77
2022/07/16 11:23:51;;;;;;;3.10;2.60;;;;;;;24.60;33.68;157696.13;4964441;28;20870;-77
2022/07/16 11:26:19;;;;;;;2.93;2.63;;;;;;;24.91;34.01;157777.31;4993655;28;20950;-77
2022/07/16 11:28:52;;;;;;;2.63;2.10;;;;;;;25.27;33.04;157871.53;4965439;28;20449;-77
2022/07/16 11:31:25;;;;;;;5.57;2.10;;;;;;;25.31;32.87;157881.97;4972450;28;20516;-77
2022/07/16 11:33:54;;;;;;;2.67;2.47;;;;;;;25.23;32.76;157859.75;4986928;28;20502;-77